Topi Weather



Topi's Current Weather

Temprature 38.82o clear sky

clear sky

Rain: 0 %

Min Temprature38.82o
Max Temprature38.82o
Humidity24
Wind Speed0.94 m/h
Sun Rise05:14:52
Sun Set19:16:50
Current Time: 24-Jul-2021 17:05:06
Lat/Lon: 34.0704, 72.6236




Topi's Geo Location



Topi's Weather Forecast

Time Overall Temp Min Temp Max Temp Humidity Wind Speed Rain
24-Jul-2021 (Sat)
20:00:00 clear sky 38.240 37.070 38.240 26 1.31 m/h 0 %
23:00:00 clear sky 36.030 34.640 36.030 32 2.32 m/h 0 %
25-Jul-2021 (Sun)
02:00:00 clear sky 32.520 32.520 32.520 41 2.84 m/h 0 %
05:00:00 scattered clouds 31.340 31.340 31.340 44 3.03 m/h 0 %
08:00:00 overcast clouds 35.320 35.320 35.320 37 1.91 m/h 0 %
11:00:00 broken clouds 39.660 39.660 39.660 29 3.05 m/h 0 %
14:00:00 few clouds 41.810 41.810 41.810 24 2.97 m/h 0 %
17:00:00 few clouds 41.940 41.940 41.940 23 1.86 m/h 0 %
20:00:00 clear sky 38.290 38.290 38.290 29 1.11 m/h 0 %
23:00:00 clear sky 35.840 35.840 35.840 35 2.61 m/h 0 %
26-Jul-2021 (Mon)
02:00:00 scattered clouds 33.790 33.790 33.790 46 2.89 m/h 0 %
05:00:00 broken clouds 32.700 32.700 32.700 49 1.31 m/h 0 %
08:00:00 broken clouds 35.320 35.320 35.320 46 2.03 m/h 0 %
11:00:00 scattered clouds 38.810 38.810 38.810 40 3.76 m/h 0 %
14:00:00 few clouds 41.110 41.110 41.110 33 3.57 m/h 0 %
17:00:00 scattered clouds 41.090 41.090 41.090 32 1.69 m/h 0 %
20:00:00 scattered clouds 36.970 36.970 36.970 43 2.72 m/h 0 %
23:00:00 scattered clouds 34.730 34.730 34.730 51 4.26 m/h 0 %
27-Jul-2021 (Tue)
02:00:00 broken clouds 33.270 33.270 33.270 59 2.78 m/h 0 %
05:00:00 light rain 32.070 32.070 32.070 65 2.47 m/h 43 %
08:00:00 light rain 32.130 32.130 32.130 65 3.06 m/h 42 %
11:00:00 light rain 35.640 35.640 35.640 52 4.04 m/h 17 %
14:00:00 light rain 38.430 38.430 38.430 43 4.67 m/h 12 %
17:00:00 light rain 37.780 37.780 37.780 44 5.21 m/h 14 %
20:00:00 light rain 34.290 34.290 34.290 56 4.26 m/h 11 %
23:00:00 moderate rain 29.950 29.950 29.950 74 4.11 m/h 580 %
28-Jul-2021 (Wed)
02:00:00 moderate rain 28.700 28.700 28.700 79 2.9 m/h 676 %
05:00:00 moderate rain 27.540 27.540 27.540 86 2.36 m/h 813 %
08:00:00 moderate rain 26.760 26.760 26.760 86 2.16 m/h 660 %
11:00:00 moderate rain 26.450 26.450 26.450 86 2.47 m/h 377 %
14:00:00 moderate rain 26.570 26.570 26.570 86 2.54 m/h 418 %
17:00:00 light rain 27.910 27.910 27.910 80 2.74 m/h 248 %
20:00:00 light rain 26.570 26.570 26.570 86 1.22 m/h 271 %
23:00:00 light rain 26.570 26.570 26.570 87 0.45 m/h 248 %
29-Jul-2021 (Thu)
02:00:00 light rain 25.870 25.870 25.870 90 0.08 m/h 271 %
05:00:00 moderate rain 25.490 25.490 25.490 92 1.15 m/h 454 %
08:00:00 light rain 26.670 26.670 26.670 85 0.55 m/h 246 %
11:00:00 light rain 30.170 30.170 30.170 68 1.96 m/h 58 %
14:00:00 light rain 32.890 32.890 32.890 57 2.21 m/h 26 %
17:00:00 broken clouds 33.030 33.030 33.030 57 2.14 m/h 0 %

Famous Cities (60)